METAR Data
IDs: Format: Raw Decoded Include TAF

Data at: 2229 UTC 20 Nov 2018

KDWH 202153Z 01007KT 10SM CLR 16/05 A3026 RMK AO2 SLP245 T01560050
KDWH 202053Z 35006KT 10SM CLR 16/06 A3026 RMK AO2 SLP246 T01610056 55020
KDWH 201953Z 36011KT 10SM CLR 16/04 A3026 RMK AO2 SLP246 T01560044
KDWH 201853Z 04009G14KT 10SM CLR 15/04 A3029 RMK AO2 SLP256 T01500044
KDWH 201753Z 04008G16KT 360V060 10SM CLR 14/06 A3032 RMK AO2 SLP266 T01440056 10144 20061 58002
KDWH 201653Z 03009G14KT 10SM CLR 13/05 A3034 RMK AO2 SLP271 T01330050
KDWH 201553Z 05011G15KT 10SM CLR 12/05 A3034 RMK AO2 SLP274 T01170050
KDWH 201453Z 02009KT 10SM CLR 10/04 A3033 RMK AO2 SLP270 T01000044 51024
KDWH 201353Z 01005KT 10SM CLR 08/04 A3031 RMK AO2 SLP262 T00780039
KDWH 201253Z 36006KT 10SM CLR 06/04 A3029 RMK AO2 SLP255 T00610039
KDWH 201153Z AUTO 01005KT 10SM CLR 07/04 A3026 RMK AO2 SLP246 70002 T00720039 10094 20072 53006
KDWH 201053Z AUTO 02006KT 10SM CLR 07/04 A3025 RMK AO2 SLP242 T00720044
KDWH 200953Z AUTO 02008KT 10SM CLR 08/05 A3024 RMK AO2 SLP239 T00830050
KDWH 200853Z AUTO 36004KT 10SM SCT050 08/06 A3024 RMK AO2 SLP240 T00830056 53005
KDWH 200753Z AUTO 36007KT 10SM SCT049 09/06 A3023 RMK AO2 SLP235 T00890061
KDWH 200653Z AUTO 36006KT 10SM FEW060 09/07 A3023 RMK AO2 SLP235 T00890067
KDWH 200553Z AUTO 36006KT 10SM BKN031 OVC060 09/07 A3023 RMK AO2 SLP235 T00940072 10100 20094 401000072 51009
KDWH 200542Z AUTO 01007KT 10SM OVC031 09/07 A3023 RMK AO2 T00940067
KDWH 200528Z AUTO 02004KT 10SM BKN029 OVC060 09/07 A3023 RMK AO2 T00940072
KDWH 200518Z AUTO 02005KT 10SM OVC030 09/07 A3023 RMK AO2 T00940072
KDWH 200453Z AUTO 36007KT 10SM OVC029 09/07 A3022 RMK AO2 SLP234 T00940072
KDWH 200432Z AUTO 36006KT 10SM BKN029 BKN065 OVC085 09/08 A3021 RMK AO2 T00940078
KDWH 200353Z 36007KT 10SM SCT055 OVC080 10/08 A3020 RMK AO2 SLP227 T01000078
KDWH 200253Z 34004KT 10SM OVC055 09/08 A3020 RMK AO2 SLP226 T00940083 53017
KDWH 200153Z 34004KT 10SM FEW025 SCT050 BKN080 09/09 A3017 RMK AO2 SLP217 T00940089
KDWH 200118Z 34003KT 10SM SCT025 09/09 A3017 RMK AO2 T00940089
KDWH 200053Z 33004KT 10SM OVC025 10/09 A3017 RMK AO2 SLP215 T01000089
KDWH 192353Z 36007KT 10SM FEW021 SCT035 BKN080 10/08 A3015 RMK AO2 SLP209 60000 T01000083 10100 20083 50006
KDWH 192332Z 35004KT 10SM SCT028 OVC035 10/09 A3016 RMK AO2 T01000089
KDWH 192253Z 35005KT 10SM SCT009 OVC028 10/09 A3015 RMK AO2 SLP209 T01000089
KDWH 192153Z 35006KT 10SM BKN009 OVC022 10/09 A3013 RMK AO2 SLP203 T01000089
KDWH 192138Z 35006KT 10SM FEW008 OVC022 10/09 A3013 RMK AO2 T01000089
KDWH 192053Z 01005KT 10SM OVC008 10/09 A3013 RMK AO2 RAB15E43 CIG 006V011 SLP203 P0000 60000 T01000089 56019
KDWH 191953Z 36009KT 10SM OVC006 09/08 A3014 RMK AO2 RAB1858E13 CIG 005V009 SLP204 P0000 T00940083
KDWH 191853Z 36005KT 8SM OVC008 09/08 A3017 RMK AO2 RAE03 CIG 004V011 SLP215 P0000 T00890083
KDWH 191805Z 02010KT 1 1/2SM BR OVC006 08/08 A3018 RMK AO2 RAE03 CIG 004V009 P0000 T00830078
KDWH 191753Z COR 01008KT 1 1/2SM -RA BR OVC006 08/08 A3019 RMK AO2 RAB09 SLP222 P0000 60002 T00830078 10083 20072 58007
KDWH 191728Z 36009KT 1 1/2SM -RA BR OVC006 08/08 A3020 RMK AO2 RAB09 P0000 T00830078
KDWH 191653Z 01006KT 6SM BR OVC007 08/07 A3021 RMK AO2 SLP231 T00830072
KDWH 191553Z 36010G16KT 9SM OVC008 08/07 A3021 RMK AO2 RAE14 SLP229 P0000 T00780072
KDWH 191453Z 36007KT 10SM -RA OVC007 07/07 A3021 RMK AO2 RAB44 CIG 006V011 SLP229 P0000 60002 T00720067 51018
KDWH 191353Z 02006KT 6SM BR BKN007 OVC015 07/07 A3019 RMK AO2 RAE08 CIG 005V011 SLP221 P0001 T00720067
KDWH 191253Z 35008KT 7SM -RA OVC009 07/07 A3018 RMK AO2 RAB07 CIG 005V012 SLP219 P0001 T00720067
KDWH 191153Z AUTO 35007KT 310V010 10SM OVC006 07/07 A3016 RMK AO2 RAB08E19 CIG 005V009 SLP211 P0000 60002 70053 T00720072 10089 20072 55000
KDWH 191053Z AUTO 36004KT 10SM OVC007 08/07 A3015 RMK AO2 LTG DSNT NW RAB00E23 SLP207 P0000 T00780072